Aérodrome :
LOGIN :

S'inscrire | Disclaimer

   EN    FR    IT 

 










Légende :    VFR   VFR Marginal   IFR   IFR Intensif   IFR Très Intensif
Visi : 
Plafond : 
>= 8 km
>= 3000ft
5 à 8 km
1000 à 3000 ft
1500m à 5 km
500 à 1000 ft
800 à 1500m
200 à 500 ft
< 800m
< 200 ft
Symboles :   Orages  Brouillard  Fortes neiges  Fortes précipitations  Vent > 20 kt
SIGMETs :   Divers  Orages  Givrage  Turbulence  Onde Orograph.  Cendres Volcan.







- Altitude de l'aérodrome : 1830 ft


EBLB - Butgenbach Elsenborn

DERNIER METAR :
  • 230255Z AUTO VRB01KT 0050 FG OVC002/// 00/00 Q1030 RED

METARs EXPIRÉS :
  • 230225Z AUTO VRB01KT 0100 FG OVC002/// M02/M02 Q1031 RED
  • 230209Z AUTO VRB01KT 0550 BR SCT011/// BKN016/// M03/M03 Q1031 RED
  • 230155Z AUTO VRB01KT 8000 FEW015/// SCT016/// M03/M03 Q1031 WHT
  • 230139Z AUTO VRB01KT 0250 BR SCT017/// M02/M03 Q1032 RED
  • 230133Z AUTO VRB01KT 2400 BR BKN017/// M02/M02 Q1032 YLO
  • 230121Z AUTO VRB01KT 1400 BR FEW003/// BKN017/// M01/M01 Q1032 AMB
  • 230113Z AUTO 00000KT 9999 FEW003/// BKN018/// M02/M02 Q1032 WHT
  • 230055Z AUTO VRB01KT 0350 FG OVC002/// M02/M02 Q1032 RED
  • 230036Z AUTO 00000KT 3800 OVC002/// M02/M02 Q1032 AMB
  • 230021Z AUTO VRB01KT 7000 SCT013/// M01/M02 Q1032 GRN

Prévision TAF périmée.
Pas de NOTAMs connus pour ce terrain.



MET'MAP, la Météo Aéronautique d'un coup d'oeil ! - Copyright ORBIFLY Décembre 2007 - Disclaimer

ORBIFLY MET'MAP TEAM :

Programmation & Développement : Alexandra Zaïnal
Conception & Développement : Baudouin d'Aumeries
Co-Programmation & Développement : Marc-Olivier Méhu
Soutien technique & logistique : Manuel Goepfert

Contact : metmap@orbifly.com




SOURCES & CREDITS :

   NOAA